Unicom:                    122.8

AWOS:                  118.275

Elevation           1458’ MSL

TPA:                   2500’ MSL

06/24:         5003’ L   75’ W

PAPI:       06/Left     24/Left

(Operate lights on unicom freq.)

Traffic Pattern: Left

Beacon: Sunset to Sunrise

Windsock: yes, lighted

Segmented Circle: No

 

Cleveland Center: 126.72/291.65

FSS: Altoona

[Source: ADDS]
METAR
KFKL 151656Z AUTO VRB06KT 10SM FEW030 OVC070 18/12 A2995 RMK AO2 SLP142 T01830122 =
KFKL 151123Z 1512/1612 30007KT 4SM BR BKN002 FM151400 33009G16KT P6SM SCT040 FM152300 32004KT P6SM BKN200
TAF
KFKL 151123Z 1512/1612 30007KT 4SM BR BKN002 FM151400 33009G16KT P6SM SCT040 FM152300 32004KT P6SM BKN200 =
[Source: ADDS]
METAR
KDUJ 151653Z AUTO 28007KT 10SM FEW043 BKN070 OVC080 18/13 A2991 RMK AO2 SLP124 T01780128 =
KDUJ 151123Z 1512/1612 28006KT P6SM SCT060 TEMPO 1512/1514 4SM BR BKN002 FM151400 33010G20KT P6SM SCT040 FM152300 32005KT P6SM SCT150
TAF
KDUJ 151123Z 1512/1612 28006KT P6SM SCT060 TEMPO 1512/1514 4SM BR BKN002 FM151400 33010G20KT P6SM SCT040 FM152300 32005KT P6SM SCT150 =

Economics.